sensor_id;sensor_type;location;lat;lon;timestamp;temperature;humidity
66608;DHT22;53462;39.616;8.824;2023-07-16T00:02:06;26.50;66.00
66608;DHT22;53462;39.616;8.824;2023-07-16T00:04:32;26.40;66.30
66608;DHT22;53462;39.616;8.824;2023-07-16T00:07:02;26.40;66.10
66608;DHT22;53462;39.616;8.824;2023-07-16T00:09:28;26.50;65.80
66608;DHT22;53462;39.616;8.824;2023-07-16T00:11:55;26.50;65.70
66608;DHT22;53462;39.616;8.824;2023-07-16T00:14:22;26.50;65.60
66608;DHT22;53462;39.616;8.824;2023-07-16T00:16:47;26.40;65.50
66608;DHT22;53462;39.616;8.824;2023-07-16T00:19:14;26.40;65.40
66608;DHT22;53462;39.616;8.824;2023-07-16T00:21:40;26.40;64.90
66608;DHT22;53462;39.616;8.824;2023-07-16T00:24:06;26.40;64.80
66608;DHT22;53462;39.616;8.824;2023-07-16T00:26:32;26.40;64.50
66608;DHT22;53462;39.616;8.824;2023-07-16T00:28:58;26.40;64.20
66608;DHT22;53462;39.616;8.824;2023-07-16T00:31:24;26.30;64.10
66608;DHT22;53462;39.616;8.824;2023-07-16T00:33:50;26.30;63.30
66608;DHT22;53462;39.616;8.824;2023-07-16T00:36:16;26.40;62.60
66608;DHT22;53462;39.616;8.824;2023-07-16T00:38:42;26.40;61.80
66608;DHT22;53462;39.616;8.824;2023-07-16T00:41:09;26.40;61.20
66608;DHT22;53462;39.616;8.824;2023-07-16T00:43:35;26.40;61.10
66608;DHT22;53462;39.616;8.824;2023-07-16T00:46:01;26.40;60.50
66608;DHT22;53462;39.616;8.824;2023-07-16T00:48:28;26.40;59.70
66608;DHT22;53462;39.616;8.824;2023-07-16T00:50:55;26.30;59.30
66608;DHT22;53462;39.616;8.824;2023-07-16T00:53:23;26.30;58.90
66608;DHT22;53462;39.616;8.824;2023-07-16T00:55:49;26.40;58.70
66608;DHT22;53462;39.616;8.824;2023-07-16T00:58:15;26.40;58.50
66608;DHT22;53462;39.616;8.824;2023-07-16T01:00:42;26.40;58.50
66608;DHT22;53462;39.616;8.824;2023-07-16T01:03:09;26.30;58.60
66608;DHT22;53462;39.616;8.824;2023-07-16T01:11:05;26.30;58.10
66608;DHT22;53462;39.616;8.824;2023-07-16T01:13:32;26.30;57.80
66608;DHT22;53462;39.616;8.824;2023-07-16T01:15:59;26.40;57.70
66608;DHT22;53462;39.616;8.824;2023-07-16T01:18:25;26.40;57.60
66608;DHT22;53462;39.616;8.824;2023-07-16T01:20:51;26.40;57.40
66608;DHT22;53462;39.616;8.824;2023-07-16T01:23:39;26.30;57.40
66608;DHT22;53462;39.616;8.824;2023-07-16T01:31:17;26.30;56.40
66608;DHT22;53462;39.616;8.824;2023-07-16T01:33:43;26.40;55.70
66608;DHT22;53462;39.616;8.824;2023-07-16T01:36:13;26.40;55.80
66608;DHT22;53462;39.616;8.824;2023-07-16T01:38:39;26.30;55.50
66608;DHT22;53462;39.616;8.824;2023-07-16T01:41:05;26.40;55.30
66608;DHT22;53462;39.616;8.824;2023-07-16T01:43:31;26.40;55.00
66608;DHT22;53462;39.616;8.824;2023-07-16T01:45:57;26.40;54.50
66608;DHT22;53462;39.616;8.824;2023-07-16T01:48:35;26.50;53.70
66608;DHT22;53462;39.616;8.824;2023-07-16T01:51:03;26.50;53.50
66608;DHT22;53462;39.616;8.824;2023-07-16T01:53:30;26.50;52.60
66608;DHT22;53462;39.616;8.824;2023-07-16T01:55:57;26.50;52.30
66608;DHT22;53462;39.616;8.824;2023-07-16T01:58:23;26.40;52.80
66608;DHT22;53462;39.616;8.824;2023-07-16T02:00:50;26.40;53.10
66608;DHT22;53462;39.616;8.824;2023-07-16T02:03:16;26.40;53.40
66608;DHT22;53462;39.616;8.824;2023-07-16T02:05:42;26.40;52.90
66608;DHT22;53462;39.616;8.824;2023-07-16T02:08:09;26.40;52.40
66608;DHT22;53462;39.616;8.824;2023-07-16T02:10:35;26.40;52.50
66608;DHT22;53462;39.616;8.824;2023-07-16T02:13:01;26.40;52.10
66608;DHT22;53462;39.616;8.824;2023-07-16T02:15:27;26.40;52.10
66608;DHT22;53462;39.616;8.824;2023-07-16T02:17:53;26.40;51.80
66608;DHT22;53462;39.616;8.824;2023-07-16T02:20:19;26.40;51.40
66608;DHT22;53462;39.616;8.824;2023-07-16T02:22:46;26.40;51.10
66608;DHT22;53462;39.616;8.824;2023-07-16T02:25:11;26.40;51.00
66608;DHT22;53462;39.616;8.824;2023-07-16T02:27:38;26.40;50.90
66608;DHT22;53462;39.616;8.824;2023-07-16T02:30:05;26.30;51.20
66608;DHT22;53462;39.616;8.824;2023-07-16T02:32:33;26.40;51.20
66608;DHT22;53462;39.616;8.824;2023-07-16T02:35:01;26.40;51.30
66608;DHT22;53462;39.616;8.824;2023-07-16T02:37:27;26.50;51.30
66608;DHT22;53462;39.616;8.824;2023-07-16T02:39:53;26.50;51.60
66608;DHT22;53462;39.616;8.824;2023-07-16T02:42:19;26.40;52.10
66608;DHT22;53462;39.616;8.824;2023-07-16T02:44:45;26.40;52.50
66608;DHT22;53462;39.616;8.824;2023-07-16T02:47:11;26.30;52.90
66608;DHT22;53462;39.616;8.824;2023-07-16T02:49:38;26.30;53.10
66608;DHT22;53462;39.616;8.824;2023-07-16T02:52:05;26.40;53.10
66608;DHT22;53462;39.616;8.824;2023-07-16T02:54:31;26.40;53.10
66608;DHT22;53462;39.616;8.824;2023-07-16T02:56:57;26.40;54.20
66608;DHT22;53462;39.616;8.824;2023-07-16T02:59:23;26.20;54.40
66608;DHT22;53462;39.616;8.824;2023-07-16T03:01:50;26.00;55.50
66608;DHT22;53462;39.616;8.824;2023-07-16T03:04:16;25.80;56.10
66608;DHT22;53462;39.616;8.824;2023-07-16T03:06:42;25.70;57.20
66608;DHT22;53462;39.616;8.824;2023-07-16T03:09:08;25.50;58.40
66608;DHT22;53462;39.616;8.824;2023-07-16T03:11:34;25.30;59.80
66608;DHT22;53462;39.616;8.824;2023-07-16T03:14:00;25.00;61.30
66608;DHT22;53462;39.616;8.824;2023-07-16T03:16:27;24.90;62.20
66608;DHT22;53462;39.616;8.824;2023-07-16T03:18:53;24.90;62.50
66608;DHT22;53462;39.616;8.824;2023-07-16T03:21:19;24.90;63.00
66608;DHT22;53462;39.616;8.824;2023-07-16T03:23:47;24.80;63.30
66608;DHT22;53462;39.616;8.824;2023-07-16T03:26:14;24.80;63.50
66608;DHT22;53462;39.616;8.824;2023-07-16T03:28:40;24.70;63.10
66608;DHT22;53462;39.616;8.824;2023-07-16T03:31:08;24.60;63.60
66608;DHT22;53462;39.616;8.824;2023-07-16T03:33:36;24.40;64.20
66608;DHT22;53462;39.616;8.824;2023-07-16T03:36:03;24.40;64.60
66608;DHT22;53462;39.616;8.824;2023-07-16T03:38:29;24.40;64.90
66608;DHT22;53462;39.616;8.824;2023-07-16T03:40:55;24.30;65.40
66608;DHT22;53462;39.616;8.824;2023-07-16T03:43:21;24.30;65.60
66608;DHT22;53462;39.616;8.824;2023-07-16T03:45:49;24.30;65.70
66608;DHT22;53462;39.616;8.824;2023-07-16T03:48:15;24.30;65.40
66608;DHT22;53462;39.616;8.824;2023-07-16T03:50:41;24.30;66.10
66608;DHT22;53462;39.616;8.824;2023-07-16T03:53:07;24.20;65.80
66608;DHT22;53462;39.616;8.824;2023-07-16T03:55:34;24.30;65.20
66608;DHT22;53462;39.616;8.824;2023-07-16T03:58:00;24.40;66.00
66608;DHT22;53462;39.616;8.824;2023-07-16T04:00:26;24.30;66.20
66608;DHT22;53462;39.616;8.824;2023-07-16T04:02:52;24.20;67.00
66608;DHT22;53462;39.616;8.824;2023-07-16T04:05:19;24.10;67.50
66608;DHT22;53462;39.616;8.824;2023-07-16T04:07:45;24.20;67.50
66608;DHT22;53462;39.616;8.824;2023-07-16T04:10:11;24.20;68.10
66608;DHT22;53462;39.616;8.824;2023-07-16T04:12:37;24.20;68.20
66608;DHT22;53462;39.616;8.824;2023-07-16T04:15:07;24.20;67.50
66608;DHT22;53462;39.616;8.824;2023-07-16T04:17:34;24.30;66.90
66608;DHT22;53462;39.616;8.824;2023-07-16T04:20:00;24.40;66.80
66608;DHT22;53462;39.616;8.824;2023-07-16T04:22:26;24.40;67.90
66608;DHT22;53462;39.616;8.824;2023-07-16T04:24:52;24.30;68.20
66608;DHT22;53462;39.616;8.824;2023-07-16T04:27:18;24.20;68.90
66608;DHT22;53462;39.616;8.824;2023-07-16T04:29:44;24.00;69.60
66608;DHT22;53462;39.616;8.824;2023-07-16T04:32:10;24.10;69.70
66608;DHT22;53462;39.616;8.824;2023-07-16T04:34:36;24.10;69.10
66608;DHT22;53462;39.616;8.824;2023-07-16T04:37:02;24.20;68.80
66608;DHT22;53462;39.616;8.824;2023-07-16T04:39:28;24.40;68.30
66608;DHT22;53462;39.616;8.824;2023-07-16T04:41:54;24.40;67.80
66608;DHT22;53462;39.616;8.824;2023-07-16T04:44:20;24.50;67.30
66608;DHT22;53462;39.616;8.824;2023-07-16T04:46:46;24.60;67.00
66608;DHT22;53462;39.616;8.824;2023-07-16T04:49:12;24.70;65.90
66608;DHT22;53462;39.616;8.824;2023-07-16T04:51:38;24.80;65.00
66608;DHT22;53462;39.616;8.824;2023-07-16T04:54:04;24.90;63.80
66608;DHT22;53462;39.616;8.824;2023-07-16T04:56:30;25.10;62.80
66608;DHT22;53462;39.616;8.824;2023-07-16T04:58:56;25.30;62.30
66608;DHT22;53462;39.616;8.824;2023-07-16T05:01:22;25.30;62.30
66608;DHT22;53462;39.616;8.824;2023-07-16T05:03:48;25.40;61.90
66608;DHT22;53462;39.616;8.824;2023-07-16T05:06:14;25.50;60.00
66608;DHT22;53462;39.616;8.824;2023-07-16T05:08:40;25.70;58.50
66608;DHT22;53462;39.616;8.824;2023-07-16T05:11:06;25.80;57.30
66608;DHT22;53462;39.616;8.824;2023-07-16T05:13:31;25.90;56.80
66608;DHT22;53462;39.616;8.824;2023-07-16T05:15:57;26.10;55.60
66608;DHT22;53462;39.616;8.824;2023-07-16T05:18:23;26.20;55.60
66608;DHT22;53462;39.616;8.824;2023-07-16T05:20:50;26.10;57.70
66608;DHT22;53462;39.616;8.824;2023-07-16T05:23:16;25.90;59.60
66608;DHT22;53462;39.616;8.824;2023-07-16T05:25:51;25.70;62.10
66608;DHT22;53462;39.616;8.824;2023-07-16T05:28:18;25.50;62.60
66608;DHT22;53462;39.616;8.824;2023-07-16T05:30:44;25.50;62.90
66608;DHT22;53462;39.616;8.824;2023-07-16T05:33:11;25.50;62.80
66608;DHT22;53462;39.616;8.824;2023-07-16T05:35:38;25.60;62.30
66608;DHT22;53462;39.616;8.824;2023-07-16T05:38:04;25.60;62.10
66608;DHT22;53462;39.616;8.824;2023-07-16T05:40:30;25.80;62.20
66608;DHT22;53462;39.616;8.824;2023-07-16T05:42:56;25.90;61.90
66608;DHT22;53462;39.616;8.824;2023-07-16T05:45:22;26.00;62.80
66608;DHT22;53462;39.616;8.824;2023-07-16T05:47:49;25.90;60.90
66608;DHT22;53462;39.616;8.824;2023-07-16T05:50:14;26.00;62.70
66608;DHT22;53462;39.616;8.824;2023-07-16T05:52:40;26.00;64.30
66608;DHT22;53462;39.616;8.824;2023-07-16T05:55:07;26.10;63.80
66608;DHT22;53462;39.616;8.824;2023-07-16T05:57:33;26.20;63.70
66608;DHT22;53462;39.616;8.824;2023-07-16T05:59:59;26.20;62.50
66608;DHT22;53462;39.616;8.824;2023-07-16T06:02:25;26.30;63.90
66608;DHT22;53462;39.616;8.824;2023-07-16T06:04:50;26.60;60.60
66608;DHT22;53462;39.616;8.824;2023-07-16T06:07:17;26.90;57.80
66608;DHT22;53462;39.616;8.824;2023-07-16T06:09:43;27.20;55.80
66608;DHT22;53462;39.616;8.824;2023-07-16T06:12:09;27.50;56.40
66608;DHT22;53462;39.616;8.824;2023-07-16T06:14:35;27.60;57.30
66608;DHT22;53462;39.616;8.824;2023-07-16T06:17:01;27.80;54.80
66608;DHT22;53462;39.616;8.824;2023-07-16T06:19:27;27.70;54.80
66608;DHT22;53462;39.616;8.824;2023-07-16T06:21:53;27.80;55.10
66608;DHT22;53462;39.616;8.824;2023-07-16T06:24:19;28.10;54.80
66608;DHT22;53462;39.616;8.824;2023-07-16T06:26:45;28.00;53.50
66608;DHT22;53462;39.616;8.824;2023-07-16T06:29:13;28.00;53.70
66608;DHT22;53462;39.616;8.824;2023-07-16T06:31:41;28.10;54.50
66608;DHT22;53462;39.616;8.824;2023-07-16T06:34:07;28.20;54.00
66608;DHT22;53462;39.616;8.824;2023-07-16T06:36:33;28.40;54.10
66608;DHT22;53462;39.616;8.824;2023-07-16T06:38:59;28.40;53.70
66608;DHT22;53462;39.616;8.824;2023-07-16T06:41:26;28.50;53.20
66608;DHT22;53462;39.616;8.824;2023-07-16T06:43:52;28.50;53.50
66608;DHT22;53462;39.616;8.824;2023-07-16T06:46:18;28.70;52.30
66608;DHT22;53462;39.616;8.824;2023-07-16T06:48:43;28.90;51.00
66608;DHT22;53462;39.616;8.824;2023-07-16T06:51:09;28.90;50.80
66608;DHT22;53462;39.616;8.824;2023-07-16T06:53:35;29.10;50.50
66608;DHT22;53462;39.616;8.824;2023-07-16T06:56:01;29.30;49.90
66608;DHT22;53462;39.616;8.824;2023-07-16T06:58:32;29.50;49.70
66608;DHT22;53462;39.616;8.824;2023-07-16T07:00:59;29.70;49.50
66608;DHT22;53462;39.616;8.824;2023-07-16T07:03:25;30.00;48.30
66608;DHT22;53462;39.616;8.824;2023-07-16T07:05:51;30.00;46.90
66608;DHT22;53462;39.616;8.824;2023-07-16T07:08:17;30.10;47.40
66608;DHT22;53462;39.616;8.824;2023-07-16T07:10:43;30.30;48.10
66608;DHT22;53462;39.616;8.824;2023-07-16T07:13:09;30.30;47.60
66608;DHT22;53462;39.616;8.824;2023-07-16T07:15:35;30.40;45.20
66608;DHT22;53462;39.616;8.824;2023-07-16T07:18:01;30.70;46.70
66608;DHT22;53462;39.616;8.824;2023-07-16T07:20:27;30.90;46.10
66608;DHT22;53462;39.616;8.824;2023-07-16T07:22:53;30.90;47.90
66608;DHT22;53462;39.616;8.824;2023-07-16T07:25:19;30.50;47.80
66608;DHT22;53462;39.616;8.824;2023-07-16T07:27:45;30.30;49.40
66608;DHT22;53462;39.616;8.824;2023-07-16T07:30:11;30.40;50.70
66608;DHT22;53462;39.616;8.824;2023-07-16T07:32:38;30.60;48.80
66608;DHT22;53462;39.616;8.824;2023-07-16T07:35:07;30.60;48.60
66608;DHT22;53462;39.616;8.824;2023-07-16T07:37:33;30.90;44.00
66608;DHT22;53462;39.616;8.824;2023-07-16T07:39:59;31.40;42.10
66608;DHT22;53462;39.616;8.824;2023-07-16T07:42:25;31.80;37.90
66608;DHT22;53462;39.616;8.824;2023-07-16T07:44:53;31.90;46.60
66608;DHT22;53462;39.616;8.824;2023-07-16T07:47:19;31.80;45.30
66608;DHT22;53462;39.616;8.824;2023-07-16T07:49:45;32.00;39.70
66608;DHT22;53462;39.616;8.824;2023-07-16T07:52:11;32.40;39.70
66608;DHT22;53462;39.616;8.824;2023-07-16T07:54:37;32.60;38.20
66608;DHT22;53462;39.616;8.824;2023-07-16T07:57:04;32.90;39.00
66608;DHT22;53462;39.616;8.824;2023-07-16T07:59:31;33.00;41.20
66608;DHT22;53462;39.616;8.824;2023-07-16T08:01:58;33.10;39.00
66608;DHT22;53462;39.616;8.824;2023-07-16T08:04:24;33.30;40.50
66608;DHT22;53462;39.616;8.824;2023-07-16T08:06:53;33.30;39.20
66608;DHT22;53462;39.616;8.824;2023-07-16T08:09:19;33.40;37.70
66608;DHT22;53462;39.616;8.824;2023-07-16T08:11:45;33.70;36.60
66608;DHT22;53462;39.616;8.824;2023-07-16T08:14:11;33.80;36.30
66608;DHT22;53462;39.616;8.824;2023-07-16T08:16:37;33.90;36.40
66608;DHT22;53462;39.616;8.824;2023-07-16T08:19:03;33.90;36.80
66608;DHT22;53462;39.616;8.824;2023-07-16T08:21:29;34.20;36.30
66608;DHT22;53462;39.616;8.824;2023-07-16T08:23:55;34.20;36.40
66608;DHT22;53462;39.616;8.824;2023-07-16T08:26:21;34.20;35.80
66608;DHT22;53462;39.616;8.824;2023-07-16T08:28:46;34.30;35.40
66608;DHT22;53462;39.616;8.824;2023-07-16T08:31:12;34.50;36.60
66608;DHT22;53462;39.616;8.824;2023-07-16T08:33:39;34.50;34.60
66608;DHT22;53462;39.616;8.824;2023-07-16T08:36:05;34.60;35.90
66608;DHT22;53462;39.616;8.824;2023-07-16T08:38:31;34.90;35.10
66608;DHT22;53462;39.616;8.824;2023-07-16T08:40:59;34.90;34.80
66608;DHT22;53462;39.616;8.824;2023-07-16T08:43:25;35.00;34.20
66608;DHT22;53462;39.616;8.824;2023-07-16T08:45:51;35.00;34.30
66608;DHT22;53462;39.616;8.824;2023-07-16T08:48:17;35.20;35.10
66608;DHT22;53462;39.616;8.824;2023-07-16T08:50:49;35.30;33.10
66608;DHT22;53462;39.616;8.824;2023-07-16T08:53:16;35.60;33.20
66608;DHT22;53462;39.616;8.824;2023-07-16T08:55:45;35.70;32.60
66608;DHT22;53462;39.616;8.824;2023-07-16T08:58:14;35.70;32.70
66608;DHT22;53462;39.616;8.824;2023-07-16T09:00:44;35.90;31.20
66608;DHT22;53462;39.616;8.824;2023-07-16T09:03:14;36.00;31.00
66608;DHT22;53462;39.616;8.824;2023-07-16T09:05:44;36.10;30.60
66608;DHT22;53462;39.616;8.824;2023-07-16T09:08:10;36.40;30.60
66608;DHT22;53462;39.616;8.824;2023-07-16T09:10:37;36.60;30.90
66608;DHT22;53462;39.616;8.824;2023-07-16T09:13:03;36.70;29.80
66608;DHT22;53462;39.616;8.824;2023-07-16T09:15:29;36.80;30.00
66608;DHT22;53462;39.616;8.824;2023-07-16T09:17:56;36.90;28.80
66608;DHT22;53462;39.616;8.824;2023-07-16T09:20:22;37.00;28.80
66608;DHT22;53462;39.616;8.824;2023-07-16T09:22:54;37.10;28.00
66608;DHT22;53462;39.616;8.824;2023-07-16T09:25:30;37.10;28.60
66608;DHT22;53462;39.616;8.824;2023-07-16T09:27:58;37.40;27.90
66608;DHT22;53462;39.616;8.824;2023-07-16T09:30:31;37.40;27.30
66608;DHT22;53462;39.616;8.824;2023-07-16T09:32:58;37.50;27.40
66608;DHT22;53462;39.616;8.824;2023-07-16T09:35:29;37.80;28.00
66608;DHT22;53462;39.616;8.824;2023-07-16T09:37:55;37.80;27.50
66608;DHT22;53462;39.616;8.824;2023-07-16T09:40:21;37.90;29.00
66608;DHT22;53462;39.616;8.824;2023-07-16T09:42:48;37.90;29.30
66608;DHT22;53462;39.616;8.824;2023-07-16T09:45:19;38.10;26.60
66608;DHT22;53462;39.616;8.824;2023-07-16T09:47:45;38.00;26.50
66608;DHT22;53462;39.616;8.824;2023-07-16T09:50:11;38.20;28.50
66608;DHT22;53462;39.616;8.824;2023-07-16T09:52:37;38.10;29.20
66608;DHT22;53462;39.616;8.824;2023-07-16T09:55:08;38.30;29.60
66608;DHT22;53462;39.616;8.824;2023-07-16T09:57:37;38.50;25.60
66608;DHT22;53462;39.616;8.824;2023-07-16T10:00:06;38.50;25.50
66608;DHT22;53462;39.616;8.824;2023-07-16T10:02:42;38.70;25.90
66608;DHT22;53462;39.616;8.824;2023-07-16T10:05:16;38.80;27.60
66608;DHT22;53462;39.616;8.824;2023-07-16T10:07:43;39.00;25.80
66608;DHT22;53462;39.616;8.824;2023-07-16T10:10:12;39.10;25.70
66608;DHT22;53462;39.616;8.824;2023-07-16T10:12:38;39.20;25.90
66608;DHT22;53462;39.616;8.824;2023-07-16T10:15:06;39.40;25.00
66608;DHT22;53462;39.616;8.824;2023-07-16T10:17:33;39.50;25.50
66608;DHT22;53462;39.616;8.824;2023-07-16T10:22:45;39.50;26.00
66608;DHT22;53462;39.616;8.824;2023-07-16T10:27:47;39.40;27.40
66608;DHT22;53462;39.616;8.824;2023-07-16T10:30:14;39.10;27.90
66608;DHT22;53462;39.616;8.824;2023-07-16T10:32:40;39.20;27.90
66608;DHT22;53462;39.616;8.824;2023-07-16T10:35:07;39.60;27.30
66608;DHT22;53462;39.616;8.824;2023-07-16T10:37:36;39.90;27.50
66608;DHT22;53462;39.616;8.824;2023-07-16T10:40:04;40.30;27.20
66608;DHT22;53462;39.616;8.824;2023-07-16T10:42:31;40.40;26.20
66608;DHT22;53462;39.616;8.824;2023-07-16T10:45:01;40.00;26.90
66608;DHT22;53462;39.616;8.824;2023-07-16T10:47:31;40.10;26.00
66608;DHT22;53462;39.616;8.824;2023-07-16T10:49:58;40.30;25.30
66608;DHT22;53462;39.616;8.824;2023-07-16T10:52:24;40.30;26.20
66608;DHT22;53462;39.616;8.824;2023-07-16T10:54:51;40.30;25.80
66608;DHT22;53462;39.616;8.824;2023-07-16T10:57:26;40.30;26.90
66608;DHT22;53462;39.616;8.824;2023-07-16T10:59:54;40.50;26.40
66608;DHT22;53462;39.616;8.824;2023-07-16T11:02:22;40.70;27.20
66608;DHT22;53462;39.616;8.824;2023-07-16T11:04:48;40.80;25.00
66608;DHT22;53462;39.616;8.824;2023-07-16T11:07:15;40.80;27.30
66608;DHT22;53462;39.616;8.824;2023-07-16T11:09:53;40.60;25.70
66608;DHT22;53462;39.616;8.824;2023-07-16T11:12:21;40.40;24.80
66608;DHT22;53462;39.616;8.824;2023-07-16T11:14:57;40.00;26.20
66608;DHT22;53462;39.616;8.824;2023-07-16T11:17:24;39.40;29.10
66608;DHT22;53462;39.616;8.824;2023-07-16T11:19:52;39.20;29.00
66608;DHT22;53462;39.616;8.824;2023-07-16T11:22:19;39.50;28.90
66608;DHT22;53462;39.616;8.824;2023-07-16T11:24:45;40.20;27.30
66608;DHT22;53462;39.616;8.824;2023-07-16T11:27:24;40.50;27.60
66608;DHT22;53462;39.616;8.824;2023-07-16T11:29:56;40.20;28.00
66608;DHT22;53462;39.616;8.824;2023-07-16T11:32:46;40.40;28.10
66608;DHT22;53462;39.616;8.824;2023-07-16T11:35:19;40.90;26.70
66608;DHT22;53462;39.616;8.824;2023-07-16T11:37:46;41.30;26.80
66608;DHT22;53462;39.616;8.824;2023-07-16T11:40:16;41.20;26.40
66608;DHT22;53462;39.616;8.824;2023-07-16T11:42:43;41.10;26.20
66608;DHT22;53462;39.616;8.824;2023-07-16T11:47:46;41.60;26.60
66608;DHT22;53462;39.616;8.824;2023-07-16T11:50:12;41.60;26.40
66608;DHT22;53462;39.616;8.824;2023-07-16T11:52:39;41.90;28.50
66608;DHT22;53462;39.616;8.824;2023-07-16T11:55:06;42.00;31.30
66608;DHT22;53462;39.616;8.824;2023-07-16T11:57:32;41.80;31.80
66608;DHT22;53462;39.616;8.824;2023-07-16T11:59:58;41.50;32.10
66608;DHT22;53462;39.616;8.824;2023-07-16T12:02:26;41.50;31.60
66608;DHT22;53462;39.616;8.824;2023-07-16T12:04:52;41.00;31.70
66608;DHT22;53462;39.616;8.824;2023-07-16T12:07:31;40.30;32.00
66608;DHT22;53462;39.616;8.824;2023-07-16T12:09:58;40.10;33.70
66608;DHT22;53462;39.616;8.824;2023-07-16T12:12:24;39.70;34.00
66608;DHT22;53462;39.616;8.824;2023-07-16T12:14:50;39.60;34.60
66608;DHT22;53462;39.616;8.824;2023-07-16T12:17:16;40.00;34.20
66608;DHT22;53462;39.616;8.824;2023-07-16T12:19:42;40.30;33.70
66608;DHT22;53462;39.616;8.824;2023-07-16T12:22:08;40.60;33.50
66608;DHT22;53462;39.616;8.824;2023-07-16T12:24:35;40.90;32.40
66608;DHT22;53462;39.616;8.824;2023-07-16T12:27:01;41.00;32.50
66608;DHT22;53462;39.616;8.824;2023-07-16T12:29:27;41.00;31.70
66608;DHT22;53462;39.616;8.824;2023-07-16T12:31:53;41.10;32.20
66608;DHT22;53462;39.616;8.824;2023-07-16T12:34:19;41.20;31.80
66608;DHT22;53462;39.616;8.824;2023-07-16T12:36:45;41.20;31.90
66608;DHT22;53462;39.616;8.824;2023-07-16T12:39:11;41.40;31.70
66608;DHT22;53462;39.616;8.824;2023-07-16T12:41:37;41.40;31.50
66608;DHT22;53462;39.616;8.824;2023-07-16T12:44:03;41.30;31.40
66608;DHT22;53462;39.616;8.824;2023-07-16T12:46:29;41.50;31.10
66608;DHT22;53462;39.616;8.824;2023-07-16T12:48:55;41.50;32.00
66608;DHT22;53462;39.616;8.824;2023-07-16T12:51:21;41.50;31.90
66608;DHT22;53462;39.616;8.824;2023-07-16T12:53:47;41.40;32.00
66608;DHT22;53462;39.616;8.824;2023-07-16T12:56:13;41.30;32.00
66608;DHT22;53462;39.616;8.824;2023-07-16T12:58:39;41.40;31.60
66608;DHT22;53462;39.616;8.824;2023-07-16T13:01:05;41.50;32.20
66608;DHT22;53462;39.616;8.824;2023-07-16T13:03:31;41.50;32.00
66608;DHT22;53462;39.616;8.824;2023-07-16T13:05:58;41.50;32.60
66608;DHT22;53462;39.616;8.824;2023-07-16T13:08:24;41.40;32.40
66608;DHT22;53462;39.616;8.824;2023-07-16T13:10:50;41.20;33.00
66608;DHT22;53462;39.616;8.824;2023-07-16T13:13:16;41.00;33.60
66608;DHT22;53462;39.616;8.824;2023-07-16T13:15:42;40.80;33.30
66608;DHT22;53462;39.616;8.824;2023-07-16T13:18:10;40.70;33.70
66608;DHT22;53462;39.616;8.824;2023-07-16T13:20:37;40.80;34.30
66608;DHT22;53462;39.616;8.824;2023-07-16T13:23:03;40.60;34.20
66608;DHT22;53462;39.616;8.824;2023-07-16T13:25:30;40.60;34.70
66608;DHT22;53462;39.616;8.824;2023-07-16T13:27:56;40.40;34.70
66608;DHT22;53462;39.616;8.824;2023-07-16T13:30:22;40.20;35.60
66608;DHT22;53462;39.616;8.824;2023-07-16T13:32:48;40.20;35.70
66608;DHT22;53462;39.616;8.824;2023-07-16T13:35:15;40.10;35.40
66608;DHT22;53462;39.616;8.824;2023-07-16T13:37:42;40.00;35.50
66608;DHT22;53462;39.616;8.824;2023-07-16T13:40:08;40.10;36.10
66608;DHT22;53462;39.616;8.824;2023-07-16T13:42:34;39.90;35.80
66608;DHT22;53462;39.616;8.824;2023-07-16T13:45:00;39.70;36.60
66608;DHT22;53462;39.616;8.824;2023-07-16T13:47:26;39.50;37.80
66608;DHT22;53462;39.616;8.824;2023-07-16T13:49:52;39.30;37.90
66608;DHT22;53462;39.616;8.824;2023-07-16T13:52:18;39.30;37.90
66608;DHT22;53462;39.616;8.824;2023-07-16T13:54:44;39.20;37.80
66608;DHT22;53462;39.616;8.824;2023-07-16T13:57:10;39.00;37.80
66608;DHT22;53462;39.616;8.824;2023-07-16T13:59:36;38.90;38.00
66608;DHT22;53462;39.616;8.824;2023-07-16T14:02:03;38.80;39.00
66608;DHT22;53462;39.616;8.824;2023-07-16T14:04:30;38.70;39.00
66608;DHT22;53462;39.616;8.824;2023-07-16T14:06:56;38.50;39.40
66608;DHT22;53462;39.616;8.824;2023-07-16T14:09:22;38.40;39.80
66608;DHT22;53462;39.616;8.824;2023-07-16T14:11:48;38.30;40.20
66608;DHT22;53462;39.616;8.824;2023-07-16T14:14:15;38.10;40.60
66608;DHT22;53462;39.616;8.824;2023-07-16T14:16:41;38.10;40.30
66608;DHT22;53462;39.616;8.824;2023-07-16T14:19:09;38.00;40.20
66608;DHT22;53462;39.616;8.824;2023-07-16T14:21:35;37.80;39.90
66608;DHT22;53462;39.616;8.824;2023-07-16T14:24:01;37.60;40.90
66608;DHT22;53462;39.616;8.824;2023-07-16T14:26:27;37.40;41.10
66608;DHT22;53462;39.616;8.824;2023-07-16T14:28:53;37.40;41.00
66608;DHT22;53462;39.616;8.824;2023-07-16T14:31:19;37.30;41.60
66608;DHT22;53462;39.616;8.824;2023-07-16T14:33:45;37.30;41.90
66608;DHT22;53462;39.616;8.824;2023-07-16T14:36:11;37.40;41.60
66608;DHT22;53462;39.616;8.824;2023-07-16T14:38:36;37.30;41.70
66608;DHT22;53462;39.616;8.824;2023-07-16T14:41:03;37.00;41.70
66608;DHT22;53462;39.616;8.824;2023-07-16T14:43:30;37.10;42.20
66608;DHT22;53462;39.616;8.824;2023-07-16T14:45:56;37.20;42.30
66608;DHT22;53462;39.616;8.824;2023-07-16T14:48:22;37.20;41.30
66608;DHT22;53462;39.616;8.824;2023-07-16T14:50:49;37.00;42.30
66608;DHT22;53462;39.616;8.824;2023-07-16T14:53:19;36.90;42.10
66608;DHT22;53462;39.616;8.824;2023-07-16T14:55:51;36.90;42.40
66608;DHT22;53462;39.616;8.824;2023-07-16T14:58:19;36.90;42.50
66608;DHT22;53462;39.616;8.824;2023-07-16T15:00:46;36.80;43.00
66608;DHT22;53462;39.616;8.824;2023-07-16T15:03:12;36.70;42.90
66608;DHT22;53462;39.616;8.824;2023-07-16T15:05:38;36.70;42.90
66608;DHT22;53462;39.616;8.824;2023-07-16T15:08:05;36.70;42.30
66608;DHT22;53462;39.616;8.824;2023-07-16T15:10:32;36.70;43.00
66608;DHT22;53462;39.616;8.824;2023-07-16T15:12:58;36.50;43.40
66608;DHT22;53462;39.616;8.824;2023-07-16T15:15:24;36.40;42.10
66608;DHT22;53462;39.616;8.824;2023-07-16T15:17:51;36.20;42.90
66608;DHT22;53462;39.616;8.824;2023-07-16T15:20:17;36.00;43.40
66608;DHT22;53462;39.616;8.824;2023-07-16T15:22:43;35.80;43.80
66608;DHT22;53462;39.616;8.824;2023-07-16T15:25:09;35.80;44.50
66608;DHT22;53462;39.616;8.824;2023-07-16T15:27:36;35.80;45.30
66608;DHT22;53462;39.616;8.824;2023-07-16T15:30:02;35.80;45.10
66608;DHT22;53462;39.616;8.824;2023-07-16T15:32:28;35.70;45.50
66608;DHT22;53462;39.616;8.824;2023-07-16T15:34:54;35.60;44.20
66608;DHT22;53462;39.616;8.824;2023-07-16T15:37:19;35.30;44.10
66608;DHT22;53462;39.616;8.824;2023-07-16T15:39:45;35.20;43.50
66608;DHT22;53462;39.616;8.824;2023-07-16T15:42:11;34.90;44.60
66608;DHT22;53462;39.616;8.824;2023-07-16T15:44:37;35.00;45.30
66608;DHT22;53462;39.616;8.824;2023-07-16T15:47:05;35.10;45.50